createdAt,value
2023-02-25T00:00:22.870Z,14.57
2023-02-25T00:02:52.333Z,15.33
2023-02-25T00:05:22.177Z,12.80
2023-02-25T00:07:50.604Z,11.57
2023-02-25T00:10:21.011Z,14.60
2023-02-25T00:12:49.614Z,15.30
2023-02-25T00:15:18.072Z,10.27
2023-02-25T00:17:49.378Z,10.40
2023-02-25T00:20:21.180Z,13.67
2023-02-25T00:22:51.844Z,8.27
2023-02-25T00:25:20.874Z,13.83
2023-02-25T00:27:50.723Z,14.70
2023-02-25T00:30:21.387Z,11.30
2023-02-25T00:32:50.641Z,14.40
2023-02-25T00:35:19.108Z,19.17
2023-02-25T00:37:48.224Z,17.07
2023-02-25T00:40:18.804Z,11.23
2023-02-25T00:42:49.643Z,13.57
2023-02-25T00:45:18.824Z,13.17
2023-02-25T00:47:48.732Z,14.87
2023-02-25T00:50:17.692Z,10.80
2023-02-25T00:52:47.034Z,9.47
2023-02-25T00:55:15.967Z,11.30
2023-02-25T00:57:46.661Z,8.43
2023-02-25T01:00:17.440Z,11.43
2023-02-25T01:02:47.319Z,10.47
2023-02-25T01:05:19.346Z,14.07
2023-02-25T01:07:48.547Z,11.67
2023-02-25T01:10:17.857Z,11.73
2023-02-25T01:12:48.188Z,14.63
2023-02-25T01:15:16.845Z,12.47
2023-02-25T01:17:45.507Z,14.30
2023-02-25T01:20:15.073Z,11.73
2023-02-25T01:22:44.152Z,12.47
2023-02-25T01:25:16.425Z,12.87
2023-02-25T01:27:47.618Z,14.43
2023-02-25T01:30:17.433Z,13.90
2023-02-25T01:32:45.984Z,9.83
2023-02-25T01:35:14.262Z,9.97
2023-02-25T01:37:44.000Z,13.07
2023-02-25T01:40:17.153Z,10.17
2023-02-25T01:42:48.506Z,11.63
2023-02-25T01:45:28.237Z,14.43
2023-02-25T01:48:01.645Z,9.97
2023-02-25T01:50:35.844Z,17.43
2023-02-25T01:53:05.609Z,12.40
2023-02-25T01:55:35.006Z,11.20
2023-02-25T01:58:04.821Z,10.70
2023-02-25T02:00:34.695Z,12.93
2023-02-25T02:03:03.539Z,12.10
2023-02-25T02:05:43.862Z,13.47
2023-02-25T02:08:12.730Z,8.97
2023-02-25T02:10:41.181Z,12.53
2023-02-25T02:13:10.910Z,12.93
2023-02-25T02:15:45.261Z,15.23
2023-02-25T02:18:14.926Z,10.20
2023-02-25T02:20:58.540Z,12.93
2023-02-25T02:23:44.550Z,12.43
2023-02-25T02:26:51.201Z,12.80
2023-02-25T02:29:49.344Z,12.47
2023-02-25T02:32:25.605Z,13.80
2023-02-25T02:35:04.453Z,15.90
2023-02-25T02:37:41.676Z,15.00
2023-02-25T02:40:31.588Z,15.57
2023-02-25T02:43:19.547Z,13.97
2023-02-25T02:45:52.434Z,16.60
2023-02-25T02:48:30.079Z,14.93
2023-02-25T02:51:01.346Z,14.00
2023-02-25T02:53:36.150Z,14.60
2023-02-25T02:56:07.822Z,15.43
2023-02-25T02:58:40.376Z,12.03
2023-02-25T03:01:14.296Z,13.30
2023-02-25T03:03:48.938Z,13.97
2023-02-25T03:06:21.003Z,17.43
2023-02-25T03:08:57.404Z,15.77
2023-02-25T03:11:26.966Z,17.57
2023-02-25T03:13:55.735Z,14.37
2023-02-25T03:16:28.602Z,11.53
2023-02-25T03:19:04.398Z,14.07
2023-02-25T03:21:39.521Z,14.53
2023-02-25T03:24:12.671Z,16.23
2023-02-25T03:26:42.808Z,14.63
2023-02-25T03:29:18.316Z,15.07
2023-02-25T03:31:53.427Z,17.20
2023-02-25T03:34:30.289Z,11.77
2023-02-25T03:37:02.348Z,17.97
2023-02-25T03:39:35.309Z,18.73
2023-02-25T03:42:07.075Z,17.97
2023-02-25T03:44:41.745Z,17.77
2023-02-25T03:47:12.212Z,20.87
2023-02-25T03:49:52.624Z,14.00
2023-02-25T03:52:26.787Z,13.27
2023-02-25T03:54:57.286Z,20.03
2023-02-25T03:57:28.673Z,14.00
2023-02-25T03:59:57.522Z,13.43
2023-02-25T04:02:30.053Z,15.17
2023-02-25T04:05:00.435Z,12.70
2023-02-25T04:07:29.832Z,17.27
2023-02-25T04:09:58.396Z,17.53
2023-02-25T04:12:27.544Z,23.07
2023-02-25T04:14:56.115Z,15.10
2023-02-25T04:17:24.639Z,17.73
2023-02-25T04:19:53.126Z,13.13
2023-02-25T04:22:23.384Z,14.33
2023-02-25T04:24:55.052Z,17.97
2023-02-25T04:27:23.975Z,14.30
2023-02-25T04:29:53.017Z,9.83
2023-02-25T04:32:22.177Z,16.60
2023-02-25T04:34:51.671Z,14.00
2023-02-25T04:37:21.192Z,14.20
2023-02-25T04:39:52.092Z,18.17
2023-02-25T04:42:21.348Z,19.27
2023-02-25T04:44:49.889Z,18.50
2023-02-25T04:47:19.140Z,19.67
2023-02-25T04:49:47.536Z,14.40
2023-02-25T04:52:16.678Z,15.70
2023-02-25T04:54:45.960Z,12.93
2023-02-25T04:57:20.799Z,14.33
2023-02-25T04:59:49.693Z,11.83
2023-02-25T05:02:19.018Z,13.60
2023-02-25T05:04:49.484Z,12.70
2023-02-25T05:07:18.785Z,14.37
2023-02-25T05:09:47.581Z,10.77
2023-02-25T05:12:18.362Z,8.97
2023-02-25T05:14:47.811Z,17.10
2023-02-25T05:17:16.908Z,15.17
2023-02-25T05:19:46.575Z,14.50
2023-02-25T05:22:15.274Z,11.53
2023-02-25T05:24:44.495Z,13.07
2023-02-25T05:27:13.324Z,12.93
2023-02-25T05:29:43.556Z,13.23
2023-02-25T05:32:13.116Z,11.80
2023-02-25T05:34:42.076Z,11.87
2023-02-25T05:37:12.100Z,15.43
2023-02-25T05:39:40.633Z,16.73
2023-02-25T05:42:09.555Z,15.77
2023-02-25T05:44:38.441Z,13.47
2023-02-25T05:47:09.324Z,15.37
2023-02-25T05:49:37.851Z,10.00
2023-02-25T05:52:06.171Z,12.47
2023-02-25T05:54:34.383Z,14.37
2023-02-25T05:57:03.280Z,9.80
2023-02-25T05:59:31.920Z,12.00
2023-02-25T06:02:00.859Z,16.07
2023-02-25T06:04:31.572Z,10.77
2023-02-25T06:06:59.675Z,12.93
2023-02-25T06:09:28.351Z,12.93
2023-02-25T06:11:57.073Z,12.97
2023-02-25T06:14:25.521Z,15.60
2023-02-25T06:16:57.038Z,14.63
2023-02-25T06:19:26.771Z,17.07
2023-02-25T06:21:57.434Z,14.77
2023-02-25T06:24:25.992Z,19.43
2023-02-25T06:26:54.112Z,12.50
2023-02-25T06:29:22.843Z,14.50
2023-02-25T06:31:55.086Z,14.67
2023-02-25T06:34:24.067Z,16.23
2023-02-25T06:36:53.019Z,14.53
2023-02-25T06:39:22.808Z,16.10
2023-02-25T06:41:53.895Z,13.50
2023-02-25T06:44:22.601Z,17.53
2023-02-25T06:46:55.523Z,9.87
2023-02-25T06:49:25.114Z,12.70
2023-02-25T06:51:53.800Z,13.60
2023-02-25T06:54:25.114Z,13.97
2023-02-25T06:56:54.788Z,12.87
2023-02-25T06:59:24.398Z,13.40
2023-02-25T07:01:55.695Z,19.33
2023-02-25T07:04:32.188Z,14.23
2023-02-25T07:07:14.535Z,15.60
2023-02-25T07:09:44.626Z,13.23
2023-02-25T07:12:17.918Z,15.23
2023-02-25T07:14:47.494Z,12.63
2023-02-25T07:17:15.833Z,8.97
2023-02-25T07:19:44.199Z,11.90
2023-02-25T07:22:16.061Z,9.43
2023-02-25T07:24:47.255Z,11.40
2023-02-25T07:27:16.170Z,11.10
2023-02-25T07:29:45.745Z,14.80
2023-02-25T07:32:14.539Z,12.60
2023-02-25T07:34:43.311Z,10.13
2023-02-25T07:37:13.102Z,11.77
2023-02-25T07:39:41.310Z,9.57
2023-02-25T07:42:10.776Z,9.17
2023-02-25T07:44:39.389Z,14.27
2023-02-25T07:47:22.135Z,8.97
2023-02-25T07:49:50.591Z,10.93
2023-02-25T07:52:18.603Z,11.97
2023-02-25T07:54:47.724Z,8.53
2023-02-25T07:57:19.454Z,11.93
2023-02-25T07:59:49.541Z,14.07
2023-02-25T08:05:04.179Z,13.03
2023-02-25T08:07:34.698Z,12.27
2023-02-25T08:10:03.487Z,10.63
2023-02-25T08:12:36.166Z,13.20
2023-02-25T08:15:04.548Z,14.70
2023-02-25T08:17:35.481Z,16.60
2023-02-25T08:20:06.340Z,13.97
2023-02-25T08:22:34.768Z,15.83
2023-02-25T08:25:03.050Z,15.10
2023-02-25T08:27:32.734Z,10.97
2023-02-25T08:30:03.329Z,14.03
2023-02-25T08:32:34.137Z,12.37
2023-02-25T08:35:12.864Z,13.93
2023-02-25T08:37:41.588Z,12.40
2023-02-25T08:40:19.947Z,11.47
2023-02-25T08:42:51.585Z,13.53
2023-02-25T08:45:21.988Z,15.57
2023-02-25T08:47:52.508Z,11.63
2023-02-25T08:50:20.984Z,12.57
2023-02-25T08:52:49.056Z,11.33
2023-02-25T08:55:18.418Z,11.97
2023-02-25T08:57:46.775Z,16.10
2023-02-25T09:00:17.460Z,14.73
2023-02-25T09:02:49.903Z,18.23
2023-02-25T09:05:20.569Z,13.03
2023-02-25T09:07:52.621Z,16.40
2023-02-25T09:10:36.127Z,11.30
2023-02-25T09:13:09.841Z,17.03
2023-02-25T09:15:42.671Z,12.83
2023-02-25T09:18:11.697Z,12.13
2023-02-25T09:20:39.926Z,10.80
2023-02-25T09:23:10.418Z,11.07
2023-02-25T09:25:44.326Z,17.53
2023-02-25T09:28:12.486Z,17.57
2023-02-25T09:30:42.528Z,17.53
2023-02-25T09:33:11.296Z,14.73
2023-02-25T09:35:41.139Z,9.67
2023-02-25T09:38:11.108Z,13.63
2023-02-25T09:40:40.427Z,17.50
2023-02-25T09:43:29.980Z,13.33
2023-02-25T09:46:13.821Z,12.57
2023-02-25T09:49:00.615Z,10.93
2023-02-25T09:51:35.469Z,14.20
2023-02-25T09:54:17.343Z,12.83
2023-02-25T09:56:50.044Z,14.90
2023-02-25T10:02:25.973Z,13.73
2023-02-25T10:05:05.591Z,13.90
2023-02-25T10:07:43.782Z,12.40
2023-02-25T10:10:23.820Z,11.93
2023-02-25T10:13:03.376Z,11.90
2023-02-25T10:16:09.847Z,10.70
2023-02-25T10:19:07.580Z,11.87
2023-02-25T10:22:10.262Z,9.43
2023-02-25T10:24:48.216Z,10.83
2023-02-25T10:27:25.620Z,6.37
2023-02-25T10:29:58.494Z,11.03
2023-02-25T10:32:30.190Z,8.57
2023-02-25T10:37:48.103Z,6.10
2023-02-25T10:40:22.744Z,9.77
2023-02-25T10:49:15.787Z,7.80
2023-02-25T10:57:32.831Z,9.83
2023-02-25T11:07:29.591Z,10.73
2023-02-25T11:13:38.869Z,9.20
2023-02-25T11:16:09.956Z,11.23
2023-02-25T11:18:42.936Z,12.43
2023-02-25T11:21:15.520Z,8.20
2023-02-25T11:24:44.672Z,10.83
2023-02-25T11:27:39.402Z,9.60
2023-02-25T11:30:49.234Z,18.60
2023-02-25T11:33:54.716Z,10.17
2023-02-25T11:36:44.521Z,8.23
2023-02-25T11:39:59.746Z,7.63
2023-02-25T11:42:49.450Z,10.07
2023-02-25T11:46:04.959Z,11.33
2023-02-25T11:52:39.236Z,13.17
2023-02-25T11:55:49.274Z,13.23
2023-02-25T11:58:50.507Z,12.20
2023-02-25T12:02:10.460Z,9.97
2023-02-25T12:05:55.543Z,4.30
2023-02-25T12:09:07.578Z,5.70
2023-02-25T12:12:35.839Z,2.93
2023-02-25T12:16:08.218Z,3.40
2023-02-25T12:19:30.860Z,3.90
2023-02-25T12:22:43.524Z,3.13
2023-02-25T12:25:43.920Z,4.83
2023-02-25T12:28:49.942Z,2.70
2023-02-25T12:32:00.803Z,2.90
2023-02-25T12:35:14.422Z,1.93
2023-02-25T12:38:51.299Z,1.90
2023-02-25T12:42:09.321Z,2.17
2023-02-25T12:49:45.997Z,7.57
2023-02-25T12:52:53.056Z,2.40
2023-02-25T12:56:28.296Z,2.23
2023-02-25T13:18:44.592Z,4.00
2023-02-25T13:22:15.573Z,6.30
2023-02-25T13:25:59.473Z,2.17
2023-02-25T13:29:12.719Z,5.73
2023-02-25T13:32:30.910Z,4.63
2023-02-25T13:43:05.973Z,3.90
2023-02-25T13:47:05.935Z,27.23
2023-02-25T14:05:10.757Z,2.37
2023-02-25T14:08:41.111Z,3.20
2023-02-25T14:19:12.576Z,3.63
2023-02-25T14:56:37.170Z,4.37
2023-02-25T15:06:51.223Z,4.53
2023-02-25T15:13:52.960Z,5.17
2023-02-25T15:17:34.839Z,6.90
2023-02-25T15:20:39.420Z,4.70
2023-02-25T15:24:02.445Z,4.30
2023-02-25T15:27:09.490Z,3.57
2023-02-25T15:30:20.613Z,2.57
2023-02-25T15:33:16.150Z,6.00
2023-02-25T15:36:01.105Z,3.83
2023-02-25T15:41:45.716Z,5.95
2023-02-25T15:44:37.389Z,6.63
2023-02-25T15:47:25.943Z,7.20
2023-02-25T15:49:57.036Z,5.50
2023-02-25T15:52:57.005Z,4.30
2023-02-25T15:55:38.288Z,6.07
2023-02-25T15:58:42.969Z,6.57
2023-02-25T16:01:44.716Z,8.13
2023-02-25T16:04:48.855Z,6.93
2023-02-25T16:07:24.899Z,6.17
2023-02-25T16:10:03.002Z,9.60
2023-02-25T16:12:31.526Z,7.13
2023-02-25T16:15:01.392Z,8.33
2023-02-25T16:17:34.128Z,4.93
2023-02-25T16:20:18.336Z,7.87
2023-02-25T16:22:51.289Z,4.97
2023-02-25T16:25:36.937Z,6.38
2023-02-25T16:28:15.599Z,7.75
2023-02-25T16:30:51.331Z,4.37
2023-02-25T16:33:32.160Z,5.47
2023-02-25T16:36:11.495Z,6.50
2023-02-25T16:38:47.596Z,5.23
2023-02-25T16:41:27.856Z,4.83
2023-02-25T16:43:59.776Z,6.00
2023-02-25T16:46:40.021Z,4.83
2023-02-25T16:49:21.506Z,6.57
2023-02-25T16:51:49.962Z,7.10
2023-02-25T16:54:20.926Z,5.80
2023-02-25T16:56:56.108Z,5.50
2023-02-25T16:59:34.827Z,6.20
2023-02-25T17:02:06.722Z,4.17
2023-02-25T17:04:39.467Z,4.30
2023-02-25T17:07:18.374Z,3.53
2023-02-25T17:09:51.757Z,5.00
2023-02-25T17:12:33.885Z,4.53
2023-02-25T17:15:06.811Z,3.50
2023-02-25T17:17:38.805Z,5.83
2023-02-25T17:20:16.635Z,5.77
2023-02-25T17:22:46.946Z,3.57
2023-02-25T17:25:19.981Z,4.97
2023-02-25T17:28:03.688Z,4.30
2023-02-25T17:31:02.350Z,7.07
2023-02-25T17:33:34.754Z,6.00
2023-02-25T17:36:12.409Z,5.10
2023-02-25T17:57:19.490Z,3.87
2023-02-25T17:59:53.209Z,4.47
2023-02-25T18:02:34.650Z,4.37
2023-02-25T18:05:31.911Z,7.13
2023-02-25T18:08:23.930Z,7.53
2023-02-25T18:14:26.744Z,5.80
2023-02-25T18:16:55.795Z,6.77
2023-02-25T18:19:32.913Z,5.83
2023-02-25T18:22:02.484Z,9.33
2023-02-25T18:24:34.572Z,5.30
2023-02-25T18:27:10.194Z,5.17
2023-02-25T18:30:36.764Z,3.00
2023-02-25T18:33:34.996Z,6.70
2023-02-25T18:36:23.755Z,8.33
2023-02-25T18:38:53.825Z,4.67
2023-02-25T18:41:22.794Z,4.67
2023-02-25T18:43:56.686Z,2.77
2023-02-25T18:46:27.303Z,5.53
2023-02-25T18:48:58.199Z,4.87
2023-02-25T18:51:26.774Z,4.97
2023-02-25T18:53:55.763Z,4.67
2023-02-25T18:56:24.804Z,6.07
2023-02-25T18:58:54.714Z,4.30
2023-02-25T19:01:38.879Z,4.77
2023-02-25T19:04:20.576Z,9.60
2023-02-25T19:06:50.137Z,6.40
2023-02-25T19:09:18.419Z,6.57
2023-02-25T19:11:47.143Z,10.90
2023-02-25T19:14:57.989Z,6.80
2023-02-25T19:17:28.122Z,8.87
2023-02-25T19:20:00.130Z,4.13
2023-02-25T19:22:31.343Z,5.77
2023-02-25T19:25:00.199Z,4.53
2023-02-25T19:27:30.719Z,4.87
2023-02-25T19:30:01.124Z,3.33
2023-02-25T19:32:30.743Z,5.50
2023-02-25T19:34:59.216Z,5.33
2023-02-25T19:37:32.925Z,4.80
2023-02-25T19:40:01.935Z,4.37
2023-02-25T19:42:30.623Z,3.20
2023-02-25T19:45:06.052Z,3.33
2023-02-25T19:47:39.788Z,6.37
2023-02-25T19:50:10.897Z,4.17
2023-02-25T19:52:40.262Z,6.10
2023-02-25T19:55:13.607Z,3.60
2023-02-25T19:57:45.394Z,3.33
2023-02-25T20:00:17.289Z,6.00
2023-02-25T20:02:50.102Z,2.83
2023-02-25T20:05:19.513Z,4.73
2023-02-25T20:07:52.180Z,7.07
2023-02-25T20:10:22.532Z,4.03
2023-02-25T20:12:54.579Z,5.03
2023-02-25T20:15:53.944Z,5.03
2023-02-25T20:18:45.289Z,3.33
2023-02-25T20:21:22.543Z,4.03
2023-02-25T20:23:55.618Z,3.90
2023-02-25T20:26:26.381Z,4.20
2023-02-25T20:29:02.106Z,4.83
2023-02-25T20:31:42.184Z,8.90
2023-02-25T20:34:16.594Z,7.10
2023-02-25T20:36:55.110Z,7.77
2023-02-25T20:39:51.801Z,8.37
2023-02-25T20:42:23.361Z,6.17
2023-02-25T20:44:56.338Z,4.70
2023-02-25T20:47:28.774Z,5.47
2023-02-25T20:50:02.196Z,10.80
2023-02-25T20:52:36.846Z,3.90
2023-02-25T20:55:07.087Z,5.97
2023-02-25T20:57:36.425Z,4.40
2023-02-25T21:00:07.915Z,4.40
2023-02-25T21:02:37.428Z,4.00
2023-02-25T21:05:10.843Z,5.93
2023-02-25T21:07:39.781Z,3.80
2023-02-25T21:10:12.119Z,3.27
2023-02-25T21:12:41.351Z,8.07
2023-02-25T21:15:11.933Z,5.70
2023-02-25T21:17:40.441Z,4.70
2023-02-25T21:20:12.711Z,4.87
2023-02-25T21:22:41.608Z,6.80
2023-02-25T21:25:10.744Z,5.70
2023-02-25T21:27:44.144Z,3.67
2023-02-25T21:30:14.237Z,3.63
2023-02-25T21:32:43.465Z,5.40
2023-02-25T21:35:17.353Z,5.57
2023-02-25T21:38:02.875Z,4.27
2023-02-25T21:40:32.153Z,3.90
2023-02-25T21:43:01.352Z,3.93
2023-02-25T21:45:38.013Z,4.23
2023-02-25T21:48:07.627Z,3.77
2023-02-25T21:50:37.900Z,4.97
2023-02-25T21:53:06.884Z,8.03
2023-02-25T21:55:36.451Z,7.30
2023-02-25T21:58:06.521Z,6.53
2023-02-25T22:00:35.194Z,3.53
2023-02-25T22:03:06.021Z,4.23
2023-02-25T22:05:36.521Z,5.43
2023-02-25T22:08:05.112Z,6.00
2023-02-25T22:10:35.478Z,3.60
2023-02-25T22:13:04.027Z,5.17
2023-02-25T22:15:32.801Z,7.13
2023-02-25T22:18:05.225Z,5.03
2023-02-25T22:20:34.764Z,8.23
2023-02-25T22:23:06.069Z,5.67
2023-02-25T22:25:34.647Z,3.57
2023-02-25T22:28:05.336Z,6.60
2023-02-25T22:30:34.367Z,5.60
2023-02-25T22:33:03.167Z,5.87
2023-02-25T22:35:32.586Z,5.23
2023-02-25T22:38:01.924Z,3.67
2023-02-25T22:40:31.907Z,4.30
2023-02-25T22:43:00.931Z,3.67
2023-02-25T22:45:29.412Z,5.13
2023-02-25T22:47:58.437Z,5.83
2023-02-25T22:50:29.246Z,2.73
2023-02-25T22:52:58.062Z,3.40
2023-02-25T22:55:27.768Z,4.57
2023-02-25T22:58:00.330Z,4.03
2023-02-25T23:00:38.895Z,6.07
2023-02-25T23:03:09.123Z,5.17
2023-02-25T23:05:39.030Z,4.90
2023-02-25T23:08:08.247Z,6.20
2023-02-25T23:10:37.473Z,5.10
2023-02-25T23:13:08.665Z,6.20
2023-02-25T23:15:38.798Z,5.77
2023-02-25T23:18:12.492Z,5.93
2023-02-25T23:20:42.049Z,5.23
2023-02-25T23:23:13.655Z,7.17
2023-02-25T23:25:43.678Z,4.87
2023-02-25T23:28:15.357Z,4.63
2023-02-25T23:30:45.744Z,4.47
2023-02-25T23:33:14.549Z,5.70
2023-02-25T23:35:43.823Z,7.73
2023-02-25T23:38:12.418Z,5.10
2023-02-25T23:40:41.565Z,5.63
2023-02-25T23:43:10.490Z,6.03
2023-02-25T23:45:40.521Z,10.07
2023-02-25T23:48:09.327Z,7.17
2023-02-25T23:50:37.903Z,8.80
2023-02-25T23:53:06.628Z,9.03
2023-02-25T23:55:36.792Z,8.27
2023-02-25T23:58:06.116Z,8.63
